createdAt,value
2018-11-03T00:01:40.823Z,97.20
2018-11-03T00:03:43.896Z,96.20
2018-11-03T00:05:46.944Z,96.30
2018-11-03T00:07:49.971Z,96.70
2018-11-03T00:09:52.967Z,97.10
2018-11-03T00:11:56.321Z,97.20
2018-11-03T00:13:59.351Z,97.10
2018-11-03T00:16:04.165Z,96.80
2018-11-03T00:18:07.657Z,96.90
2018-11-03T00:20:10.693Z,96.00
2018-11-03T00:22:13.792Z,95.80
2018-11-03T00:24:17.070Z,97.40
2018-11-03T00:26:20.119Z,97.30
2018-11-03T00:28:23.129Z,96.70
2018-11-03T00:30:26.688Z,96.00
2018-11-03T00:32:29.709Z,95.80
2018-11-03T00:34:34.084Z,95.70
2018-11-03T00:36:37.135Z,97.10
2018-11-03T00:38:40.117Z,95.90
2018-11-03T00:40:43.213Z,95.70
2018-11-03T00:42:46.209Z,95.70
2018-11-03T00:44:49.206Z,96.30
2018-11-03T00:46:52.229Z,96.50
2018-11-03T00:48:55.289Z,96.60
2018-11-03T00:50:58.293Z,97.10
2018-11-03T00:53:01.311Z,96.60
2018-11-03T00:55:06.817Z,96.20
2018-11-03T00:57:09.829Z,96.30
2018-11-03T00:59:12.897Z,96.10
2018-11-03T01:01:15.897Z,96.00
2018-11-03T01:03:18.976Z,96.60
2018-11-03T01:05:22.009Z,97.00
2018-11-03T01:07:25.023Z,96.70
2018-11-03T01:09:28.110Z,96.20
2018-11-03T01:11:31.140Z,96.10
2018-11-03T01:13:35.836Z,96.30
2018-11-03T01:15:38.903Z,95.90
2018-11-03T01:17:41.939Z,97.00
2018-11-03T01:19:45.250Z,96.20
2018-11-03T01:21:48.305Z,96.30
2018-11-03T01:23:51.371Z,96.10
2018-11-03T01:25:54.458Z,96.30
2018-11-03T01:27:57.592Z,96.20
2018-11-03T01:30:00.665Z,97.20
2018-11-03T01:32:05.716Z,97.60
2018-11-03T01:34:08.832Z,97.30
2018-11-03T01:36:11.896Z,97.30
2018-11-03T01:38:14.969Z,97.70
2018-11-03T01:40:18.073Z,97.50
2018-11-03T01:42:21.422Z,97.50
2018-11-03T01:44:24.420Z,97.30
2018-11-03T01:46:27.434Z,97.10
2018-11-03T01:48:30.468Z,96.90
2018-11-03T01:50:35.295Z,97.00
2018-11-03T01:52:39.267Z,96.70
2018-11-03T01:54:42.235Z,96.70
2018-11-03T01:56:45.392Z,96.90
2018-11-03T01:58:49.044Z,96.50
2018-11-03T02:00:52.131Z,97.20
2018-11-03T02:02:55.179Z,96.70
2018-11-03T02:04:58.306Z,96.80
2018-11-03T02:07:01.448Z,97.40
2018-11-03T02:09:07.271Z,98.20
2018-11-03T02:11:10.828Z,98.10
2018-11-03T02:13:13.872Z,97.50
2018-11-03T02:15:16.938Z,98.00
2018-11-03T02:17:20.036Z,97.10
2018-11-03T02:19:25.941Z,97.10
2018-11-03T02:21:28.989Z,97.20
2018-11-03T02:23:32.351Z,98.10
2018-11-03T02:25:35.820Z,98.30
2018-11-03T02:27:38.858Z,97.90
2018-11-03T02:29:42.213Z,97.60
2018-11-03T02:31:45.303Z,97.70
2018-11-03T02:33:48.331Z,97.80
2018-11-03T02:35:51.418Z,97.70
2018-11-03T02:37:54.454Z,97.70
2018-11-03T02:39:57.564Z,98.30
2018-11-03T02:42:00.638Z,98.40
2018-11-03T02:44:05.516Z,98.30
2018-11-03T02:46:08.539Z,98.50
2018-11-03T02:48:11.582Z,98.40
2018-11-03T02:50:14.652Z,98.20
2018-11-03T02:52:17.813Z,98.20
2018-11-03T02:54:20.902Z,97.80
2018-11-03T02:56:23.980Z,97.80
2018-11-03T02:58:27.081Z,97.40
2018-11-03T03:00:30.145Z,97.60
2018-11-03T03:02:34.704Z,98.10
2018-11-03T03:04:37.758Z,98.30
2018-11-03T03:06:40.889Z,97.50
2018-11-03T03:08:45.389Z,97.50
2018-11-03T03:10:48.488Z,97.30
2018-11-03T03:12:51.600Z,97.00
2018-11-03T03:14:54.704Z,97.80
2018-11-03T03:16:57.801Z,97.60
2018-11-03T03:19:00.857Z,98.10
2018-11-03T03:21:06.014Z,97.60
2018-11-03T03:23:09.136Z,98.50
2018-11-03T03:25:12.271Z,98.70
2018-11-03T03:27:15.345Z,98.30
2018-11-03T03:29:18.400Z,98.20
2018-11-03T03:31:21.542Z,98.70
2018-11-03T03:33:24.630Z,98.50
2018-11-03T03:35:27.635Z,97.80
2018-11-03T03:37:30.652Z,98.20
2018-11-03T03:39:35.194Z,97.60
2018-11-03T03:41:38.682Z,97.20
2018-11-03T03:43:41.697Z,97.50
2018-11-03T03:45:44.710Z,98.00
2018-11-03T03:47:47.697Z,97.30
2018-11-03T03:49:50.860Z,98.40
2018-11-03T03:51:53.854Z,98.90
2018-11-03T03:53:57.201Z,98.60
2018-11-03T03:56:00.191Z,97.60
2018-11-03T03:58:04.915Z,97.30
2018-11-03T04:00:09.927Z,97.80
2018-11-03T04:02:13.061Z,98.10
2018-11-03T04:04:16.359Z,97.90
2018-11-03T04:06:19.399Z,97.80
2018-11-03T04:08:22.359Z,98.20
2018-11-03T04:10:25.675Z,98.10
2018-11-03T04:12:28.754Z,97.30
2018-11-03T04:14:33.403Z,97.50
2018-11-03T04:16:36.502Z,97.90
2018-11-03T04:18:39.652Z,98.20
2018-11-03T04:20:42.628Z,98.70
2018-11-03T04:22:45.938Z,98.00
2018-11-03T04:24:48.927Z,97.40
2018-11-03T04:26:51.883Z,97.80
2018-11-03T04:28:55.570Z,98.10
2018-11-03T04:30:58.646Z,97.90
2018-11-03T04:33:03.271Z,97.30
2018-11-03T04:35:06.693Z,97.70
2018-11-03T04:37:09.688Z,97.30
2018-11-03T04:39:12.728Z,97.40
2018-11-03T04:41:15.812Z,97.80
2018-11-03T04:43:18.810Z,97.20
2018-11-03T04:45:21.858Z,97.50
2018-11-03T04:47:24.906Z,97.40
2018-11-03T04:49:27.969Z,98.50
2018-11-03T04:51:34.141Z,98.30
2018-11-03T04:53:37.238Z,97.60
2018-11-03T04:55:40.246Z,97.30
2018-11-03T04:57:43.221Z,97.10
2018-11-03T04:59:46.390Z,98.20
2018-11-03T05:01:49.510Z,98.10
2018-11-03T05:03:52.514Z,97.80
2018-11-03T05:05:55.658Z,97.90
2018-11-03T05:07:58.707Z,97.10
2018-11-03T05:10:03.458Z,97.20
2018-11-03T05:12:06.443Z,97.60
2018-11-03T05:14:10.048Z,98.00
2018-11-03T05:16:13.047Z,98.20
2018-11-03T05:18:16.039Z,97.90
2018-11-03T05:20:19.026Z,98.10
2018-11-03T05:22:22.121Z,98.80
2018-11-03T05:24:25.246Z,98.70
2018-11-03T05:26:28.227Z,98.90
2018-11-03T05:28:31.199Z,98.60
2018-11-03T05:30:35.563Z,98.60
2018-11-03T05:32:38.534Z,98.40
2018-11-03T05:34:41.563Z,98.30
2018-11-03T05:36:44.585Z,98.30
2018-11-03T05:38:47.683Z,98.40
2018-11-03T05:40:50.704Z,98.50
2018-11-03T05:42:53.700Z,98.40
2018-11-03T05:44:56.703Z,98.30
2018-11-03T05:47:00.184Z,98.40
2018-11-03T05:49:04.986Z,98.70
2018-11-03T05:51:08.014Z,98.70
2018-11-03T05:53:11.085Z,98.80
2018-11-03T05:55:14.076Z,98.70
2018-11-03T05:57:17.081Z,98.70
2018-11-03T05:59:20.095Z,98.70
2018-11-03T06:01:23.081Z,98.40
2018-11-03T06:03:26.145Z,99.10
2018-11-03T06:05:29.151Z,99.10
2018-11-03T06:07:33.804Z,99.10
2018-11-03T06:09:36.955Z,98.70
2018-11-03T06:11:40.215Z,99.00
2018-11-03T06:13:43.226Z,99.20
2018-11-03T06:15:46.251Z,98.80
2018-11-03T06:17:49.633Z,99.30
2018-11-03T06:19:52.614Z,99.40
2018-11-03T06:21:55.646Z,99.30
2018-11-03T06:23:58.663Z,99.00
2018-11-03T06:26:03.352Z,99.20
2018-11-03T06:28:06.730Z,99.40
2018-11-03T06:30:10.710Z,99.20
2018-11-03T06:32:13.810Z,98.90
2018-11-03T06:34:17.146Z,98.70
2018-11-03T06:36:20.175Z,99.20
2018-11-03T06:38:23.436Z,99.00
2018-11-03T06:40:26.450Z,98.80
2018-11-03T06:42:29.473Z,99.30
2018-11-03T06:44:34.185Z,98.80
2018-11-03T06:46:37.253Z,98.90
2018-11-03T06:48:40.355Z,98.60
2018-11-03T06:50:43.346Z,98.90
2018-11-03T06:52:46.368Z,98.70
2018-11-03T06:54:49.485Z,98.70
2018-11-03T06:56:52.509Z,98.80
2018-11-03T06:58:55.535Z,99.30
2018-11-03T07:00:58.533Z,99.00
2018-11-03T07:03:03.471Z,99.40
2018-11-03T07:05:07.135Z,98.80
2018-11-03T07:07:10.124Z,98.40
2018-11-03T07:09:13.302Z,98.80
2018-11-03T07:11:16.309Z,98.90
2018-11-03T07:13:19.379Z,98.80
2018-11-03T07:15:22.304Z,99.00
2018-11-03T07:17:25.295Z,98.90
2018-11-03T07:19:28.303Z,99.10
2018-11-03T07:21:33.013Z,99.40
2018-11-03T07:23:36.104Z,99.30
2018-11-03T07:25:39.079Z,99.10
2018-11-03T07:27:42.513Z,99.10
2018-11-03T07:29:45.519Z,99.20
2018-11-03T07:31:48.470Z,98.90
2018-11-03T07:33:51.526Z,99.10
2018-11-03T07:35:54.585Z,99.50
2018-11-03T07:37:57.583Z,99.10
2018-11-03T07:40:00.671Z,98.90
2018-11-03T07:42:05.472Z,99.10
2018-11-03T07:44:08.660Z,98.90
2018-11-03T07:46:11.627Z,99.20
2018-11-03T07:48:14.815Z,99.20
2018-11-03T07:50:17.731Z,99.20
2018-11-03T07:52:20.735Z,99.10
2018-11-03T07:54:23.777Z,99.10
2018-11-03T07:56:26.828Z,98.70
2018-11-03T07:58:29.827Z,99.60
2018-11-03T08:00:34.183Z,98.80
2018-11-03T08:02:37.093Z,98.60
2018-11-03T08:04:40.077Z,98.30
2018-11-03T08:06:43.392Z,98.80
2018-11-03T08:08:46.389Z,98.40
2018-11-03T08:10:49.478Z,98.40
2018-11-03T08:12:52.491Z,98.30
2018-11-03T08:14:55.501Z,98.20
2018-11-03T08:16:58.500Z,98.00
2018-11-03T08:19:01.591Z,98.00
2018-11-03T08:21:05.705Z,98.10
2018-11-03T08:23:08.778Z,97.90
2018-11-03T08:25:11.781Z,98.00
2018-11-03T08:27:14.832Z,97.80
2018-11-03T08:29:17.838Z,97.80
2018-11-03T08:31:20.948Z,97.70
2018-11-03T08:33:23.873Z,97.40
2018-11-03T08:35:26.904Z,97.40
2018-11-03T08:37:29.918Z,97.50
2018-11-03T08:39:34.576Z,97.10
2018-11-03T08:41:37.954Z,97.10
2018-11-03T08:43:40.973Z,97.00
2018-11-03T08:45:43.986Z,97.00
2018-11-03T08:47:47.011Z,96.80
2018-11-03T08:49:50.088Z,96.90
2018-11-03T08:51:53.399Z,96.60
2018-11-03T08:53:56.433Z,96.60
2018-11-03T08:55:59.554Z,96.80
2018-11-03T08:58:03.873Z,96.90
2018-11-03T09:00:11.716Z,96.70
2018-11-03T09:02:14.774Z,97.10
2018-11-03T09:04:17.756Z,96.60
2018-11-03T09:06:20.839Z,96.20
2018-11-03T09:08:23.968Z,96.00
2018-11-03T09:10:26.946Z,96.10
2018-11-03T09:12:30.331Z,95.80
2018-11-03T09:14:34.796Z,96.00
2018-11-03T09:16:37.820Z,95.50
2018-11-03T09:18:41.995Z,95.10
2018-11-03T09:20:44.989Z,95.70
2018-11-03T09:22:48.088Z,95.40
2018-11-03T09:24:51.091Z,94.90
2018-11-03T09:26:54.143Z,95.50
2018-11-03T09:28:57.178Z,95.00
2018-11-03T09:31:00.161Z,95.10
2018-11-03T09:33:04.776Z,94.90
2018-11-03T09:35:08.721Z,94.50
2018-11-03T09:37:11.787Z,94.60
2018-11-03T09:39:15.281Z,93.80
2018-11-03T09:41:18.177Z,93.70
2018-11-03T09:43:21.244Z,94.30
2018-11-03T09:45:24.241Z,94.80
2018-11-03T09:47:27.314Z,94.80
2018-11-03T09:49:33.610Z,94.10
2018-11-03T09:51:36.695Z,93.70
2018-11-03T09:53:39.914Z,93.70
2018-11-03T09:55:42.992Z,93.50
2018-11-03T09:57:46.075Z,94.10
2018-11-03T09:59:49.190Z,94.30
2018-11-03T10:01:52.354Z,93.80
2018-11-03T10:03:55.448Z,93.30
2018-11-03T10:05:58.604Z,93.00
2018-11-03T10:08:02.214Z,92.90
2018-11-03T10:10:09.150Z,93.20
2018-11-03T10:12:12.209Z,93.20
2018-11-03T10:14:15.320Z,92.90
2018-11-03T10:16:18.405Z,93.00
2018-11-03T10:18:21.513Z,91.70
2018-11-03T10:20:24.620Z,92.30
2018-11-03T10:22:27.706Z,91.70
2018-11-03T10:24:30.956Z,92.20
2018-11-03T10:26:35.613Z,91.70
2018-11-03T10:28:38.766Z,91.30
2018-11-03T10:30:41.822Z,91.80
2018-11-03T10:32:45.266Z,91.50
2018-11-03T10:34:48.266Z,91.20
2018-11-03T10:36:51.387Z,91.40
2018-11-03T10:38:54.490Z,91.70
2018-11-03T10:40:57.606Z,90.90
2018-11-03T10:43:00.705Z,90.80
2018-11-03T10:45:06.604Z,89.50
2018-11-03T10:47:09.713Z,90.20
2018-11-03T10:49:12.963Z,90.00
2018-11-03T10:51:15.990Z,88.60
2018-11-03T10:53:19.019Z,88.80
2018-11-03T10:55:22.053Z,89.00
2018-11-03T10:57:25.184Z,88.30
2018-11-03T10:59:28.192Z,89.70
2018-11-03T11:01:36.883Z,89.20
2018-11-03T11:03:45.633Z,90.20
2018-11-03T11:05:54.283Z,89.10
2018-11-03T11:08:02.979Z,89.40
2018-11-03T11:10:11.736Z,89.70
2018-11-03T11:12:20.621Z,86.90
2018-11-03T11:14:23.626Z,88.50
2018-11-03T11:16:26.678Z,87.20
2018-11-03T11:18:29.629Z,85.40
2018-11-03T11:20:33.204Z,85.70
2018-11-03T11:22:36.297Z,85.50
2018-11-03T11:24:39.450Z,85.60
2018-11-03T11:26:42.463Z,85.10
2018-11-03T11:28:45.511Z,84.90
2018-11-03T11:30:48.591Z,85.80
2018-11-03T11:32:51.895Z,85.30
2018-11-03T11:34:54.885Z,87.10
2018-11-03T11:36:57.989Z,87.10
2018-11-03T11:39:00.979Z,87.60
2018-11-03T11:41:05.315Z,86.70
2018-11-03T11:43:09.535Z,87.90
2018-11-03T11:45:12.407Z,82.80
2018-11-03T11:47:15.425Z,85.00
2018-11-03T11:49:18.488Z,85.00
2018-11-03T11:51:21.503Z,84.60
2018-11-03T11:53:24.465Z,80.60
2018-11-03T11:55:27.506Z,78.10
2018-11-03T11:57:30.648Z,80.40
2018-11-03T11:59:34.685Z,77.50
2018-11-03T12:01:37.885Z,75.80
2018-11-03T12:03:40.899Z,79.60
2018-11-03T12:05:43.897Z,80.10
2018-11-03T12:07:46.896Z,80.90
2018-11-03T12:09:50.188Z,79.00
2018-11-03T12:11:53.208Z,76.90
2018-11-03T12:13:56.495Z,74.30
2018-11-03T12:15:59.551Z,75.50
2018-11-03T12:18:04.439Z,76.20
2018-11-03T12:20:08.128Z,79.50
2018-11-03T12:22:11.491Z,78.90
2018-11-03T12:24:14.846Z,78.40
2018-11-03T12:26:17.894Z,78.30
2018-11-03T12:28:20.917Z,77.40
2018-11-03T12:30:23.929Z,77.40
2018-11-03T12:32:26.986Z,74.90
2018-11-03T12:34:30.017Z,75.60
2018-11-03T12:36:34.878Z,75.90
2018-11-03T12:38:38.026Z,75.10
2018-11-03T12:40:41.058Z,74.80
2018-11-03T12:42:44.474Z,75.30
2018-11-03T12:44:47.442Z,78.20
2018-11-03T12:46:50.460Z,78.50
2018-11-03T12:48:54.093Z,77.70
2018-11-03T12:50:57.054Z,77.30
2018-11-03T12:53:00.058Z,75.50
2018-11-03T12:55:05.326Z,74.90
2018-11-03T12:57:08.367Z,76.60
2018-11-03T12:59:11.418Z,74.80
2018-11-03T13:01:14.467Z,76.20
2018-11-03T13:03:17.578Z,75.00
2018-11-03T13:05:20.764Z,76.40
2018-11-03T13:07:24.696Z,76.00
2018-11-03T13:09:27.818Z,73.70
2018-11-03T13:11:30.692Z,75.10
2018-11-03T13:13:35.083Z,74.30
2018-11-03T13:15:38.117Z,76.50
2018-11-03T13:17:41.062Z,76.40
2018-11-03T13:19:44.067Z,76.50
2018-11-03T13:21:47.123Z,76.10
2018-11-03T13:23:50.532Z,74.80
2018-11-03T13:25:53.579Z,74.70
2018-11-03T13:27:56.625Z,72.90
2018-11-03T13:29:59.609Z,73.20
2018-11-03T13:32:03.746Z,73.80
2018-11-03T13:34:06.858Z,74.50
2018-11-03T13:36:09.895Z,74.30
2018-11-03T13:38:12.848Z,74.20
2018-11-03T13:40:15.875Z,75.70
2018-11-03T13:42:18.934Z,74.40
2018-11-03T13:44:22.019Z,72.30
2018-11-03T13:46:25.033Z,73.00
2018-11-03T13:48:28.037Z,72.60
2018-11-03T13:50:31.094Z,72.30
2018-11-03T13:52:34.853Z,73.40
2018-11-03T13:54:37.918Z,71.60
2018-11-03T13:56:40.955Z,70.70
2018-11-03T13:58:44.292Z,70.40
2018-11-03T14:00:47.395Z,70.10
2018-11-03T14:02:50.425Z,71.00
2018-11-03T14:04:53.575Z,70.70
2018-11-03T14:06:56.662Z,71.50
2018-11-03T14:08:59.909Z,69.70
2018-11-03T14:11:04.232Z,71.80
2018-11-03T14:13:07.323Z,71.00
2018-11-03T14:15:12.064Z,70.20
2018-11-03T14:17:15.109Z,69.30
2018-11-03T14:19:18.087Z,71.50
2018-11-03T14:21:21.087Z,71.20
2018-11-03T14:23:24.156Z,72.50
2018-11-03T14:25:27.114Z,71.80
2018-11-03T14:27:30.174Z,72.00
2018-11-03T14:29:34.757Z,72.00
2018-11-03T14:31:37.778Z,72.60
2018-11-03T14:33:40.771Z,72.00
2018-11-03T14:35:43.753Z,73.70
2018-11-03T14:37:46.750Z,73.10
2018-11-03T14:39:49.747Z,73.00
2018-11-03T14:41:52.787Z,73.30
2018-11-03T14:43:55.763Z,73.50
2018-11-03T14:45:58.848Z,73.90
2018-11-03T14:48:03.681Z,74.50
2018-11-03T14:50:07.913Z,74.00
2018-11-03T14:52:10.929Z,74.50
2018-11-03T14:54:13.951Z,75.30
2018-11-03T14:56:17.005Z,74.80
2018-11-03T14:58:20.007Z,75.40
2018-11-03T15:00:23.304Z,75.60
2018-11-03T15:02:26.275Z,75.70
2018-11-03T15:04:29.369Z,76.10
2018-11-03T15:06:33.721Z,76.70
2018-11-03T15:08:36.852Z,76.80
2018-11-03T15:10:39.791Z,77.10
2018-11-03T15:12:44.080Z,77.50
2018-11-03T15:14:47.088Z,77.50
2018-11-03T15:16:50.113Z,77.30
2018-11-03T15:18:53.250Z,77.70
2018-11-03T15:20:56.210Z,78.10
2018-11-03T15:22:59.215Z,78.50
2018-11-03T15:25:03.723Z,77.70
2018-11-03T15:27:06.735Z,78.00
2018-11-03T15:29:09.760Z,78.00
2018-11-03T15:31:12.893Z,78.60
2018-11-03T15:33:15.914Z,79.70
2018-11-03T15:35:18.870Z,79.50
2018-11-03T15:37:21.950Z,79.70
2018-11-03T15:39:24.926Z,79.70
2018-11-03T15:41:27.984Z,79.50
2018-11-03T15:43:30.968Z,80.00
2018-11-03T15:45:35.323Z,80.90
2018-11-03T15:47:38.378Z,81.40
2018-11-03T15:49:41.404Z,81.40
2018-11-03T15:51:44.380Z,81.80
2018-11-03T15:53:48.290Z,81.40
2018-11-03T15:55:51.251Z,83.50
2018-11-03T15:57:54.246Z,83.00
2018-11-03T15:59:57.266Z,83.90
2018-11-03T16:02:00.311Z,83.70
2018-11-03T16:04:03.710Z,84.40
2018-11-03T16:06:06.731Z,84.40
2018-11-03T16:08:09.840Z,83.90
2018-11-03T16:10:12.911Z,84.80
2018-11-03T16:12:15.998Z,85.00
2018-11-03T16:14:19.023Z,84.80
2018-11-03T16:16:22.107Z,85.20
2018-11-03T16:18:25.151Z,85.20
2018-11-03T16:20:28.214Z,84.20
2018-11-03T16:22:31.411Z,85.00
2018-11-03T16:24:35.688Z,84.70
2018-11-03T16:26:38.945Z,85.50
2018-11-03T16:28:41.948Z,84.80
2018-11-03T16:30:45.656Z,86.20
2018-11-03T16:32:49.351Z,85.10
2018-11-03T16:34:52.485Z,86.60
2018-11-03T16:36:55.500Z,86.80
2018-11-03T16:38:58.477Z,86.50
2018-11-03T16:41:01.480Z,88.30
2018-11-03T16:43:06.015Z,89.70
2018-11-03T16:45:10.496Z,90.40
2018-11-03T16:47:13.470Z,89.80
2018-11-03T16:49:18.911Z,90.10
2018-11-03T16:51:21.999Z,88.90
2018-11-03T16:53:25.018Z,89.50
2018-11-03T16:55:29.650Z,89.50
2018-11-03T16:57:33.654Z,90.10
2018-11-03T16:59:36.712Z,90.10
2018-11-03T17:01:39.682Z,90.90
2018-11-03T17:03:42.795Z,90.50
2018-11-03T17:05:45.839Z,90.60
2018-11-03T17:07:48.870Z,90.90
2018-11-03T17:09:51.982Z,89.90
2018-11-03T17:11:55.856Z,89.90
2018-11-03T17:13:58.846Z,90.20
2018-11-03T17:16:02.392Z,90.30
2018-11-03T17:18:05.589Z,90.40
2018-11-03T17:20:09.280Z,90.20
2018-11-03T17:22:12.324Z,90.10
2018-11-03T17:24:15.466Z,89.70
2018-11-03T17:26:18.625Z,90.20
2018-11-03T17:28:21.746Z,90.10
2018-11-03T17:30:24.762Z,90.20
2018-11-03T17:32:27.790Z,90.20
2018-11-03T17:34:31.379Z,89.70
2018-11-03T17:36:34.489Z,89.90
2018-11-03T17:38:37.555Z,89.20
2018-11-03T17:40:40.598Z,89.90
2018-11-03T17:42:43.619Z,89.10
2018-11-03T17:44:46.714Z,89.70
2018-11-03T17:46:49.843Z,90.30
2018-11-03T17:48:52.889Z,91.10
2018-11-03T17:50:55.909Z,90.80
2018-11-03T17:52:58.924Z,91.40
2018-11-03T17:55:02.718Z,90.80
2018-11-03T17:57:05.926Z,91.30
2018-11-03T17:59:09.029Z,91.10
2018-11-03T18:01:12.178Z,91.60
2018-11-03T18:03:15.077Z,92.00
2018-11-03T18:05:18.115Z,92.40
2018-11-03T18:07:21.270Z,92.60
2018-11-03T18:09:26.118Z,92.20
2018-11-03T18:11:29.208Z,93.00
2018-11-03T18:13:33.820Z,93.40
2018-11-03T18:15:36.985Z,93.10
2018-11-03T18:17:40.556Z,92.60
2018-11-03T18:19:43.729Z,93.00
2018-11-03T18:21:46.728Z,92.00
2018-11-03T18:23:49.743Z,92.40
2018-11-03T18:25:53.374Z,92.50
2018-11-03T18:27:56.588Z,92.90
2018-11-03T18:29:59.644Z,92.70
2018-11-03T18:32:04.370Z,92.70
2018-11-03T18:34:07.456Z,92.50
2018-11-03T18:36:10.496Z,92.20
2018-11-03T18:38:13.844Z,92.40
2018-11-03T18:40:16.961Z,92.30
2018-11-03T18:42:20.082Z,92.30
2018-11-03T18:44:23.420Z,91.90
2018-11-03T18:46:26.421Z,92.10
2018-11-03T18:48:29.466Z,92.60
2018-11-03T18:50:33.878Z,92.50
2018-11-03T18:52:36.903Z,93.00
2018-11-03T18:54:39.988Z,93.40
2018-11-03T18:56:43.027Z,92.70
2018-11-03T18:58:47.466Z,93.10
2018-11-03T19:00:50.527Z,93.00
2018-11-03T19:02:53.639Z,92.60
2018-11-03T19:04:56.723Z,92.80
2018-11-03T19:06:59.891Z,93.00
2018-11-03T19:09:05.563Z,92.80
2018-11-03T19:11:09.268Z,92.60
2018-11-03T19:13:12.592Z,92.10
2018-11-03T19:15:15.672Z,91.90
2018-11-03T19:17:19.018Z,92.30
2018-11-03T19:19:22.045Z,92.10
2018-11-03T19:21:25.086Z,92.30
2018-11-03T19:23:28.157Z,92.60
2018-11-03T19:25:31.214Z,92.40
2018-11-03T19:27:34.993Z,93.00
2018-11-03T19:29:38.186Z,92.80
2018-11-03T19:31:41.207Z,92.70
2018-11-03T19:33:44.506Z,92.30
2018-11-03T19:35:47.608Z,92.90
2018-11-03T19:37:50.576Z,92.80
2018-11-03T19:39:53.596Z,92.80
2018-11-03T19:41:56.619Z,92.90
2018-11-03T19:43:59.619Z,93.00
2018-11-03T19:46:04.189Z,93.20
2018-11-03T19:48:07.220Z,93.20
2018-11-03T19:50:10.313Z,93.30
2018-11-03T19:52:13.378Z,93.20
2018-11-03T19:54:16.760Z,93.10
2018-11-03T19:56:19.770Z,93.40
2018-11-03T19:58:22.877Z,94.60
2018-11-03T20:00:25.926Z,93.90
2018-11-03T20:02:29.084Z,93.90
2018-11-03T20:04:34.053Z,94.40
2018-11-03T20:06:37.213Z,94.00
2018-11-03T20:08:40.250Z,93.70
2018-11-03T20:10:43.244Z,94.80
2018-11-03T20:12:47.341Z,94.20
2018-11-03T20:14:50.700Z,94.10
2018-11-03T20:16:54.043Z,94.20
2018-11-03T20:18:57.018Z,94.20
2018-11-03T20:20:59.997Z,94.30
2018-11-03T20:23:05.285Z,94.30
2018-11-03T20:25:09.891Z,95.50
2018-11-03T20:27:12.933Z,96.70
2018-11-03T20:29:15.968Z,96.80
2018-11-03T20:31:19.146Z,94.70
2018-11-03T20:33:23.350Z,93.90
2018-11-03T20:35:26.494Z,93.40
2018-11-03T20:37:29.467Z,93.30
2018-11-03T20:39:33.895Z,93.60
2018-11-03T20:41:38.492Z,93.90
2018-11-03T20:43:41.892Z,94.30
2018-11-03T20:45:44.891Z,95.20
2018-11-03T20:47:48.066Z,95.70
2018-11-03T20:49:51.071Z,96.60
2018-11-03T20:51:54.197Z,97.50
2018-11-03T20:53:57.320Z,97.50
2018-11-03T20:56:00.457Z,96.10
2018-11-03T20:58:05.835Z,95.10
2018-11-03T21:00:12.022Z,94.90
2018-11-03T21:02:15.223Z,94.60
2018-11-03T21:04:18.305Z,94.60
2018-11-03T21:06:21.368Z,94.60
2018-11-03T21:08:24.688Z,94.70
2018-11-03T21:10:27.653Z,93.90
2018-11-03T21:12:31.042Z,93.80
2018-11-03T21:14:35.837Z,93.90
2018-11-03T21:16:38.971Z,94.10
2018-11-03T21:18:42.049Z,94.30
2018-11-03T21:20:45.091Z,94.70
2018-11-03T21:22:48.148Z,94.60
2018-11-03T21:24:51.114Z,94.40
2018-11-03T21:26:54.284Z,94.40
2018-11-03T21:28:57.245Z,94.40
2018-11-03T21:31:00.348Z,94.60
2018-11-03T21:33:05.459Z,94.80
2018-11-03T21:35:08.223Z,94.70
2018-11-03T21:37:11.276Z,95.10
2018-11-03T21:39:15.208Z,95.10
2018-11-03T21:41:18.415Z,95.50
2018-11-03T21:43:21.486Z,95.40
2018-11-03T21:45:24.786Z,95.00
2018-11-03T21:47:27.815Z,94.80
2018-11-03T21:49:31.034Z,94.10
2018-11-03T21:51:35.366Z,94.20
2018-11-03T21:53:38.368Z,95.10
2018-11-03T21:55:41.546Z,94.40
2018-11-03T21:57:44.590Z,94.40
2018-11-03T21:59:47.710Z,95.40
2018-11-03T22:01:50.706Z,94.80
2018-11-03T22:03:53.963Z,95.40
2018-11-03T22:05:56.954Z,95.80
2018-11-03T22:08:00.135Z,95.10
2018-11-03T22:10:05.384Z,95.30
2018-11-03T22:12:08.446Z,95.10
2018-11-03T22:14:11.700Z,94.80
2018-11-03T22:16:14.639Z,94.90
2018-11-03T22:18:17.782Z,95.20
2018-11-03T22:20:21.145Z,95.20
2018-11-03T22:22:24.146Z,95.00
2018-11-03T22:24:27.445Z,94.40
2018-11-03T22:26:30.991Z,94.80
2018-11-03T22:28:35.283Z,94.50
2018-11-03T22:30:38.335Z,95.00
2018-11-03T22:32:41.492Z,95.40
2018-11-03T22:34:44.453Z,95.90
2018-11-03T22:36:47.538Z,95.70
2018-11-03T22:38:51.039Z,96.00
2018-11-03T22:40:54.089Z,95.80
2018-11-03T22:42:57.072Z,95.90
2018-11-03T22:45:00.099Z,95.80
2018-11-03T22:47:04.626Z,95.70
2018-11-03T22:49:07.604Z,96.20
2018-11-03T22:51:14.197Z,96.30
2018-11-03T22:53:17.363Z,96.00
2018-11-03T22:55:20.330Z,95.90
2018-11-03T22:57:23.362Z,96.10
2018-11-03T22:59:26.424Z,96.10
2018-11-03T23:01:29.418Z,96.40
2018-11-03T23:03:33.945Z,96.90
2018-11-03T23:05:36.956Z,96.80
2018-11-03T23:07:40.204Z,97.10
2018-11-03T23:09:43.229Z,97.30
2018-11-03T23:11:46.335Z,97.00
2018-11-03T23:13:49.385Z,97.40
2018-11-03T23:15:52.371Z,97.70
2018-11-03T23:17:55.501Z,97.60
2018-11-03T23:19:58.572Z,97.40
2018-11-03T23:22:03.207Z,97.60
2018-11-03T23:24:06.671Z,97.30
2018-11-03T23:26:09.682Z,97.20
2018-11-03T23:28:12.831Z,97.90
2018-11-03T23:30:15.940Z,97.20
2018-11-03T23:32:18.983Z,97.80
2018-11-03T23:34:22.018Z,98.40
2018-11-03T23:36:25.257Z,98.10
2018-11-03T23:38:28.504Z,98.40
2018-11-03T23:40:33.283Z,98.60
2018-11-03T23:42:36.406Z,98.10
2018-11-03T23:44:39.489Z,99.00
2018-11-03T23:46:42.770Z,99.40
2018-11-03T23:48:45.920Z,99.70
2018-11-03T23:50:49.082Z,99.60
2018-11-03T23:52:52.247Z,99.60
2018-11-03T23:54:55.305Z,99.70
2018-11-03T23:56:58.356Z,99.70
2018-11-03T23:59:02.762Z,99.70
